Terminal Aerodrome Forecast
Issued by NWS

Home | Current Version | Previous Version | Text Only | Print | Product List | Glossary On
Versions: 1 2 3 4 5 6 7 8 9 10 11 12 13
000
FTAK31 PAJN 222326
TAFAJN
TAF
PAJN 222326Z 2300/2324 VRB04KT P6SM SCT050 BKN140
     FM230300 VRB04KT P6SM VCSH SCT040 OVC070
     FM230600 08006KT P6SM VCSH SCT020 BKN040 OVC060 PROB30
      2309/2312 4SM -SHRASN SCT010 BKN025 OVC040
     FM231200 09006KT P6SM -RASN SCT020 OVC030=

USA.gov is the U.S. government's official web portal to all federal, state and local government web resources and services.